sensor_id;sensor_type;location;lat;lon;timestamp;P1;durP1;ratioP1;P2;durP2;ratioP2
72575;SDS011;60613;48.658;2.328;2023-02-10T07:02:42;18.67;;;12.07;;
72575;SDS011;60613;48.658;2.328;2023-02-10T07:05:10;17.90;;;11.65;;
72575;SDS011;60613;48.658;2.328;2023-02-10T07:07:36;19.55;;;11.07;;
72575;SDS011;60613;48.658;2.328;2023-02-10T07:10:02;18.95;;;10.77;;
72575;SDS011;60613;48.658;2.328;2023-02-10T07:12:28;16.67;;;10.50;;
72575;SDS011;60613;48.658;2.328;2023-02-10T07:14:54;17.23;;;10.27;;
72575;SDS011;60613;48.658;2.328;2023-02-10T07:17:20;14.47;;;10.03;;
72575;SDS011;60613;48.658;2.328;2023-02-10T07:19:46;18.67;;;10.27;;
72575;SDS011;60613;48.658;2.328;2023-02-10T07:22:11;15.38;;;9.50;;
72575;SDS011;60613;48.658;2.328;2023-02-10T07:24:37;14.00;;;9.50;;
72575;SDS011;60613;48.658;2.328;2023-02-10T07:27:03;15.13;;;8.95;;
72575;SDS011;60613;48.658;2.328;2023-02-10T07:29:29;14.87;;;8.77;;
72575;SDS011;60613;48.658;2.328;2023-02-10T07:31:55;26.10;;;17.67;;
72575;SDS011;60613;48.658;2.328;2023-02-10T07:34:23;28.45;;;20.10;;
72575;SDS011;60613;48.658;2.328;2023-02-10T07:36:49;25.90;;;17.25;;
72575;SDS011;60613;48.658;2.328;2023-02-10T07:39:24;22.13;;;14.25;;
72575;SDS011;60613;48.658;2.328;2023-02-10T07:41:50;19.30;;;12.97;;
72575;SDS011;60613;48.658;2.328;2023-02-10T07:44:15;20.30;;;12.48;;
72575;SDS011;60613;48.658;2.328;2023-02-10T07:46:42;15.85;;;11.18;;
72575;SDS011;60613;48.658;2.328;2023-02-10T07:49:08;15.00;;;10.03;;
72575;SDS011;60613;48.658;2.328;2023-02-10T07:51:33;16.20;;;10.35;;
72575;SDS011;60613;48.658;2.328;2023-02-10T07:53:59;15.45;;;10.18;;
72575;SDS011;60613;48.658;2.328;2023-02-10T07:56:25;14.70;;;10.07;;
72575;SDS011;60613;48.658;2.328;2023-02-10T07:58:50;15.48;;;9.77;;
72575;SDS011;60613;48.658;2.328;2023-02-10T08:01:16;14.20;;;8.97;;
72575;SDS011;60613;48.658;2.328;2023-02-10T08:03:42;15.00;;;9.30;;
72575;SDS011;60613;48.658;2.328;2023-02-10T08:06:07;14.50;;;9.63;;
72575;SDS011;60613;48.658;2.328;2023-02-10T08:08:33;14.57;;;9.38;;
72575;SDS011;60613;48.658;2.328;2023-02-10T08:10:59;14.13;;;9.13;;
72575;SDS011;60613;48.658;2.328;2023-02-10T08:13:28;13.80;;;9.15;;
72575;SDS011;60613;48.658;2.328;2023-02-10T08:15:54;14.38;;;8.80;;
72575;SDS011;60613;48.658;2.328;2023-02-10T08:18:20;13.83;;;8.97;;
72575;SDS011;60613;48.658;2.328;2023-02-10T08:20:46;13.38;;;8.70;;
72575;SDS011;60613;48.658;2.328;2023-02-10T08:23:13;14.63;;;9.03;;
72575;SDS011;60613;48.658;2.328;2023-02-10T08:25:40;13.95;;;9.38;;
72575;SDS011;60613;48.658;2.328;2023-02-10T08:28:06;13.40;;;8.90;;
72575;SDS011;60613;48.658;2.328;2023-02-10T08:30:32;14.75;;;9.38;;
72575;SDS011;60613;48.658;2.328;2023-02-10T08:32:58;14.60;;;9.10;;
72575;SDS011;60613;48.658;2.328;2023-02-10T08:35:24;14.53;;;9.20;;
72575;SDS011;60613;48.658;2.328;2023-02-10T08:37:49;13.20;;;8.60;;
72575;SDS011;60613;48.658;2.328;2023-02-10T08:40:15;14.60;;;9.00;;
72575;SDS011;60613;48.658;2.328;2023-02-10T08:42:41;13.23;;;8.82;;
72575;SDS011;60613;48.658;2.328;2023-02-10T08:45:07;13.25;;;8.98;;
72575;SDS011;60613;48.658;2.328;2023-02-10T08:47:34;14.53;;;8.80;;
72575;SDS011;60613;48.658;2.328;2023-02-10T08:49:59;13.82;;;8.75;;
72575;SDS011;60613;48.658;2.328;2023-02-10T08:52:25;15.00;;;9.17;;
72575;SDS011;60613;48.658;2.328;2023-02-10T08:54:51;12.90;;;8.88;;
72575;SDS011;60613;48.658;2.328;2023-02-10T08:57:17;12.83;;;8.50;;
72575;SDS011;60613;48.658;2.328;2023-02-10T08:59:42;14.63;;;8.83;;
72575;SDS011;60613;48.658;2.328;2023-02-10T09:02:09;14.95;;;9.35;;
72575;SDS011;60613;48.658;2.328;2023-02-10T09:04:36;14.63;;;9.40;;
72575;SDS011;60613;48.658;2.328;2023-02-10T09:07:02;13.23;;;8.67;;
72575;SDS011;60613;48.658;2.328;2023-02-10T09:09:28;15.27;;;8.80;;
72575;SDS011;60613;48.658;2.328;2023-02-10T09:11:53;13.80;;;9.13;;
72575;SDS011;60613;48.658;2.328;2023-02-10T09:14:19;13.30;;;8.85;;
72575;SDS011;60613;48.658;2.328;2023-02-10T09:16:45;13.70;;;9.35;;
72575;SDS011;60613;48.658;2.328;2023-02-10T09:19:11;14.80;;;9.07;;
72575;SDS011;60613;48.658;2.328;2023-02-10T09:21:37;13.35;;;8.95;;
72575;SDS011;60613;48.658;2.328;2023-02-10T09:24:02;13.63;;;8.83;;
72575;SDS011;60613;48.658;2.328;2023-02-10T09:26:28;14.30;;;8.73;;
72575;SDS011;60613;48.658;2.328;2023-02-10T09:28:54;13.87;;;8.70;;
72575;SDS011;60613;48.658;2.328;2023-02-10T09:31:19;12.73;;;8.63;;
72575;SDS011;60613;48.658;2.328;2023-02-10T09:33:47;13.15;;;8.40;;
72575;SDS011;60613;48.658;2.328;2023-02-10T09:36:16;14.20;;;8.80;;
72575;SDS011;60613;48.658;2.328;2023-02-10T09:38:43;12.63;;;7.80;;
72575;SDS011;60613;48.658;2.328;2023-02-10T09:41:19;11.68;;;8.05;;
72575;SDS011;60613;48.658;2.328;2023-02-10T09:44:06;12.40;;;7.70;;
72575;SDS011;60613;48.658;2.328;2023-02-10T09:49:50;14.13;;;7.68;;
72575;SDS011;60613;48.658;2.328;2023-02-10T09:55:13;12.98;;;7.80;;
72575;SDS011;60613;48.658;2.328;2023-02-10T09:57:48;11.50;;;7.37;;
72575;SDS011;60613;48.658;2.328;2023-02-10T10:00:29;11.95;;;7.15;;
72575;SDS011;60613;48.658;2.328;2023-02-10T10:02:58;11.10;;;6.88;;
72575;SDS011;60613;48.658;2.328;2023-02-10T10:05:32;10.93;;;7.00;;
72575;SDS011;60613;48.658;2.328;2023-02-10T10:08:11;10.63;;;6.63;;
72575;SDS011;60613;48.658;2.328;2023-02-10T10:11:00;10.53;;;6.60;;
72575;SDS011;60613;48.658;2.328;2023-02-10T10:13:29;10.65;;;6.63;;
72575;SDS011;60613;48.658;2.328;2023-02-10T10:21:30;11.18;;;6.70;;
72575;SDS011;60613;48.658;2.328;2023-02-10T10:24:44;10.23;;;6.10;;
72575;SDS011;60613;48.658;2.328;2023-02-10T10:30:19;10.60;;;6.70;;
72575;SDS011;60613;48.658;2.328;2023-02-10T10:32:58;11.02;;;6.50;;
72575;SDS011;60613;48.658;2.328;2023-02-10T10:35:31;12.60;;;6.55;;
72575;SDS011;60613;48.658;2.328;2023-02-10T10:38:15;11.17;;;6.60;;
72575;SDS011;60613;48.658;2.328;2023-02-10T10:40:47;10.65;;;5.90;;
72575;SDS011;60613;48.658;2.328;2023-02-10T10:43:17;11.50;;;6.10;;
72575;SDS011;60613;48.658;2.328;2023-02-10T10:45:49;10.10;;;5.75;;
72575;SDS011;60613;48.658;2.328;2023-02-10T10:48:19;10.25;;;5.78;;
72575;SDS011;60613;48.658;2.328;2023-02-10T10:50:51;10.17;;;5.70;;
72575;SDS011;60613;48.658;2.328;2023-02-10T10:53:28;10.85;;;5.90;;
72575;SDS011;60613;48.658;2.328;2023-02-10T10:56:02;10.63;;;5.57;;
72575;SDS011;60613;48.658;2.328;2023-02-10T10:58:35;8.95;;;5.28;;
72575;SDS011;60613;48.658;2.328;2023-02-10T11:01:04;11.80;;;5.47;;
72575;SDS011;60613;48.658;2.328;2023-02-10T11:03:31;12.47;;;5.60;;
72575;SDS011;60613;48.658;2.328;2023-02-10T11:06:08;12.90;;;6.00;;
72575;SDS011;60613;48.658;2.328;2023-02-10T11:08:45;14.77;;;5.60;;
72575;SDS011;60613;48.658;2.328;2023-02-10T11:11:19;12.27;;;5.97;;
72575;SDS011;60613;48.658;2.328;2023-02-10T11:14:00;15.57;;;5.95;;
72575;SDS011;60613;48.658;2.328;2023-02-10T11:16:26;15.27;;;5.80;;
72575;SDS011;60613;48.658;2.328;2023-02-10T11:18:58;13.18;;;5.60;;
72575;SDS011;60613;48.658;2.328;2023-02-10T11:21:35;12.43;;;5.68;;
72575;SDS011;60613;48.658;2.328;2023-02-10T11:24:02;13.48;;;5.80;;
72575;SDS011;60613;48.658;2.328;2023-02-10T11:26:28;12.48;;;5.72;;
72575;SDS011;60613;48.658;2.328;2023-02-10T11:28:54;10.53;;;4.87;;
72575;SDS011;60613;48.658;2.328;2023-02-10T11:33:57;11.83;;;5.10;;
72575;SDS011;60613;48.658;2.328;2023-02-10T11:36:36;11.80;;;5.05;;
72575;SDS011;60613;48.658;2.328;2023-02-10T11:39:05;11.82;;;5.22;;
72575;SDS011;60613;48.658;2.328;2023-02-10T11:41:46;9.85;;;4.50;;
72575;SDS011;60613;48.658;2.328;2023-02-10T11:44:29;12.23;;;4.60;;
72575;SDS011;60613;48.658;2.328;2023-02-10T11:46:57;10.63;;;4.88;;
72575;SDS011;60613;48.658;2.328;2023-02-10T11:49:25;9.07;;;4.55;;
72575;SDS011;60613;48.658;2.328;2023-02-10T11:51:55;11.50;;;4.47;;
72575;SDS011;60613;48.658;2.328;2023-02-10T11:54:22;13.48;;;4.40;;
72575;SDS011;60613;48.658;2.328;2023-02-10T12:08:37;8.80;;;3.90;;
72575;SDS011;60613;48.658;2.328;2023-02-10T12:20:02;10.93;;;4.30;;
72575;SDS011;60613;48.658;2.328;2023-02-10T12:37:08;10.82;;;3.85;;
72575;SDS011;60613;48.658;2.328;2023-02-10T12:40:28;8.67;;;3.53;;
72575;SDS011;60613;48.658;2.328;2023-02-10T12:53:44;7.40;;;3.30;;
72575;SDS011;60613;48.658;2.328;2023-02-10T12:56:33;9.15;;;3.50;;
72575;SDS011;60613;48.658;2.328;2023-02-10T12:59:14;8.25;;;3.40;;
72575;SDS011;60613;48.658;2.328;2023-02-10T13:02:00;7.28;;;3.30;;
72575;SDS011;60613;48.658;2.328;2023-02-10T13:05:06;7.97;;;3.40;;
72575;SDS011;60613;48.658;2.328;2023-02-10T13:07:28;6.97;;;3.20;;
72575;SDS011;60613;48.658;2.328;2023-02-10T13:12:48;9.32;;;3.30;;
72575;SDS011;60613;48.658;2.328;2023-02-10T13:17:51;9.35;;;3.30;;
72575;SDS011;60613;48.658;2.328;2023-02-10T13:28:46;7.90;;;3.10;;
72575;SDS011;60613;48.658;2.328;2023-02-10T13:34:21;7.17;;;2.80;;
72575;SDS011;60613;48.658;2.328;2023-02-10T13:36:55;7.28;;;3.10;;
72575;SDS011;60613;48.658;2.328;2023-02-10T13:39:22;7.22;;;3.00;;
72575;SDS011;60613;48.658;2.328;2023-02-10T13:44:42;6.43;;;2.60;;
72575;SDS011;60613;48.658;2.328;2023-02-10T13:49:50;7.20;;;3.00;;
72575;SDS011;60613;48.658;2.328;2023-02-10T13:52:21;8.23;;;3.10;;
72575;SDS011;60613;48.658;2.328;2023-02-10T13:54:56;7.60;;;3.00;;
72575;SDS011;60613;48.658;2.328;2023-02-10T13:57:27;9.27;;;2.88;;
72575;SDS011;60613;48.658;2.328;2023-02-10T14:00:04;7.32;;;2.80;;
72575;SDS011;60613;48.658;2.328;2023-02-10T14:02:37;6.97;;;2.70;;
72575;SDS011;60613;48.658;2.328;2023-02-10T14:05:03;6.93;;;2.83;;
72575;SDS011;60613;48.658;2.328;2023-02-10T14:07:45;6.72;;;2.83;;
72575;SDS011;60613;48.658;2.328;2023-02-10T14:12:55;7.13;;;2.90;;
72575;SDS011;60613;48.658;2.328;2023-02-10T14:15:25;6.25;;;2.80;;
72575;SDS011;60613;48.658;2.328;2023-02-10T14:18:03;7.15;;;2.90;;
72575;SDS011;60613;48.658;2.328;2023-02-10T14:20:33;6.20;;;2.60;;
72575;SDS011;60613;48.658;2.328;2023-02-10T14:23:01;6.75;;;2.70;;
72575;SDS011;60613;48.658;2.328;2023-02-10T14:25:30;6.77;;;2.50;;
72575;SDS011;60613;48.658;2.328;2023-02-10T14:28:04;6.45;;;2.70;;
72575;SDS011;60613;48.658;2.328;2023-02-10T14:30:45;6.43;;;2.60;;
72575;SDS011;60613;48.658;2.328;2023-02-10T14:33:18;6.45;;;2.72;;
72575;SDS011;60613;48.658;2.328;2023-02-10T14:35:48;6.32;;;2.60;;
72575;SDS011;60613;48.658;2.328;2023-02-10T14:38:51;6.10;;;2.60;;
72575;SDS011;60613;48.658;2.328;2023-02-10T14:41:10;6.70;;;2.63;;
72575;SDS011;60613;48.658;2.328;2023-02-10T14:43:35;6.18;;;2.60;;
72575;SDS011;60613;48.658;2.328;2023-02-10T14:46:03;6.50;;;2.50;;
72575;SDS011;60613;48.658;2.328;2023-02-10T14:48:29;5.55;;;2.50;;
72575;SDS011;60613;48.658;2.328;2023-02-10T14:51:17;6.88;;;2.72;;
72575;SDS011;60613;48.658;2.328;2023-02-10T14:53:48;6.47;;;2.60;;
72575;SDS011;60613;48.658;2.328;2023-02-10T14:56:16;6.07;;;2.58;;
72575;SDS011;60613;48.658;2.328;2023-02-10T14:58:45;6.30;;;2.50;;
72575;SDS011;60613;48.658;2.328;2023-02-10T15:01:15;6.95;;;2.60;;
72575;SDS011;60613;48.658;2.328;2023-02-10T15:03:47;6.13;;;2.78;;
72575;SDS011;60613;48.658;2.328;2023-02-10T15:06:14;6.00;;;2.33;;
72575;SDS011;60613;48.658;2.328;2023-02-10T15:08:44;6.03;;;2.60;;
72575;SDS011;60613;48.658;2.328;2023-02-10T15:11:38;6.85;;;2.70;;
72575;SDS011;60613;48.658;2.328;2023-02-10T15:14:33;7.70;;;2.70;;
72575;SDS011;60613;48.658;2.328;2023-02-10T15:17:04;6.28;;;2.60;;
72575;SDS011;60613;48.658;2.328;2023-02-10T15:19:35;5.73;;;2.60;;
72575;SDS011;60613;48.658;2.328;2023-02-10T15:22:01;6.53;;;2.70;;
72575;SDS011;60613;48.658;2.328;2023-02-10T15:24:30;6.15;;;2.70;;
72575;SDS011;60613;48.658;2.328;2023-02-10T15:27:16;5.88;;;2.70;;
72575;SDS011;60613;48.658;2.328;2023-02-10T15:29:43;5.57;;;2.30;;
72575;SDS011;60613;48.658;2.328;2023-02-10T15:32:19;6.23;;;2.67;;
72575;SDS011;60613;48.658;2.328;2023-02-10T15:34:47;5.82;;;2.45;;
72575;SDS011;60613;48.658;2.328;2023-02-10T15:37:21;5.88;;;2.50;;
72575;SDS011;60613;48.658;2.328;2023-02-10T15:39:58;5.90;;;2.60;;
72575;SDS011;60613;48.658;2.328;2023-02-10T15:42:26;5.90;;;2.30;;
72575;SDS011;60613;48.658;2.328;2023-02-10T15:45:00;5.87;;;2.50;;
72575;SDS011;60613;48.658;2.328;2023-02-10T15:47:43;6.25;;;2.60;;
72575;SDS011;60613;48.658;2.328;2023-02-10T15:50:13;6.80;;;2.47;;
72575;SDS011;60613;48.658;2.328;2023-02-10T15:52:40;6.35;;;2.53;;
72575;SDS011;60613;48.658;2.328;2023-02-10T15:55:30;5.47;;;2.20;;
72575;SDS011;60613;48.658;2.328;2023-02-10T15:57:59;6.50;;;2.60;;
72575;SDS011;60613;48.658;2.328;2023-02-10T16:00:30;5.47;;;2.50;;
72575;SDS011;60613;48.658;2.328;2023-02-10T16:02:58;5.88;;;2.55;;
72575;SDS011;60613;48.658;2.328;2023-02-10T16:05:25;5.90;;;2.40;;
72575;SDS011;60613;48.658;2.328;2023-02-10T16:07:52;5.47;;;2.30;;
72575;SDS011;60613;48.658;2.328;2023-02-10T16:10:20;6.80;;;2.57;;
72575;SDS011;60613;48.658;2.328;2023-02-10T16:12:47;5.68;;;2.42;;
72575;SDS011;60613;48.658;2.328;2023-02-10T16:15:14;5.57;;;2.40;;
72575;SDS011;60613;48.658;2.328;2023-02-10T16:17:41;6.55;;;2.30;;
72575;SDS011;60613;48.658;2.328;2023-02-10T16:20:31;5.60;;;2.38;;
72575;SDS011;60613;48.658;2.328;2023-02-10T16:22:56;5.77;;;2.40;;
72575;SDS011;60613;48.658;2.328;2023-02-10T16:25:23;6.10;;;2.50;;
72575;SDS011;60613;48.658;2.328;2023-02-10T16:27:51;6.00;;;2.60;;
72575;SDS011;60613;48.658;2.328;2023-02-10T16:30:19;6.03;;;2.42;;
72575;SDS011;60613;48.658;2.328;2023-02-10T16:32:50;5.35;;;2.40;;
72575;SDS011;60613;48.658;2.328;2023-02-10T16:35:17;6.13;;;2.43;;
72575;SDS011;60613;48.658;2.328;2023-02-10T16:37:43;5.70;;;2.28;;
72575;SDS011;60613;48.658;2.328;2023-02-10T16:40:11;6.47;;;2.55;;
72575;SDS011;60613;48.658;2.328;2023-02-10T16:42:43;5.75;;;2.40;;
72575;SDS011;60613;48.658;2.328;2023-02-10T16:45:09;5.67;;;2.30;;
72575;SDS011;60613;48.658;2.328;2023-02-10T16:47:35;5.75;;;2.40;;
72575;SDS011;60613;48.658;2.328;2023-02-10T16:50:01;6.17;;;2.40;;
72575;SDS011;60613;48.658;2.328;2023-02-10T16:52:27;5.57;;;2.40;;
72575;SDS011;60613;48.658;2.328;2023-02-10T16:54:52;6.03;;;2.20;;
72575;SDS011;60613;48.658;2.328;2023-02-10T16:57:18;5.20;;;2.40;;
72575;SDS011;60613;48.658;2.328;2023-02-10T16:59:44;5.45;;;2.42;;
72575;SDS011;60613;48.658;2.328;2023-02-10T17:02:10;6.27;;;2.63;;
72575;SDS011;60613;48.658;2.328;2023-02-10T17:04:35;6.53;;;2.60;;
72575;SDS011;60613;48.658;2.328;2023-02-10T17:07:01;7.60;;;2.93;;
72575;SDS011;60613;48.658;2.328;2023-02-10T17:09:27;6.45;;;2.72;;
72575;SDS011;60613;48.658;2.328;2023-02-10T17:11:52;7.73;;;3.13;;
72575;SDS011;60613;48.658;2.328;2023-02-10T17:14:18;6.20;;;2.80;;
72575;SDS011;60613;48.658;2.328;2023-02-10T17:16:45;6.73;;;3.10;;
72575;SDS011;60613;48.658;2.328;2023-02-10T17:19:13;7.80;;;3.00;;
72575;SDS011;60613;48.658;2.328;2023-02-10T17:21:40;7.00;;;3.00;;
72575;SDS011;60613;48.658;2.328;2023-02-10T17:24:06;7.20;;;2.88;;
72575;SDS011;60613;48.658;2.328;2023-02-10T17:26:32;7.82;;;3.15;;
72575;SDS011;60613;48.658;2.328;2023-02-10T17:28:58;6.63;;;2.80;;
72575;SDS011;60613;48.658;2.328;2023-02-10T17:31:23;7.05;;;2.80;;
72575;SDS011;60613;48.658;2.328;2023-02-10T17:33:49;6.77;;;3.10;;
72575;SDS011;60613;48.658;2.328;2023-02-10T17:38:46;7.43;;;3.13;;
72575;SDS011;60613;48.658;2.328;2023-02-10T17:41:11;8.63;;;3.30;;
72575;SDS011;60613;48.658;2.328;2023-02-10T17:43:37;7.93;;;3.33;;
72575;SDS011;60613;48.658;2.328;2023-02-10T17:46:03;7.88;;;3.28;;
72575;SDS011;60613;48.658;2.328;2023-02-10T17:48:29;7.18;;;3.30;;
72575;SDS011;60613;48.658;2.328;2023-02-10T17:51:04;7.73;;;3.50;;
72575;SDS011;60613;48.658;2.328;2023-02-10T17:53:31;7.13;;;3.20;;
72575;SDS011;60613;48.658;2.328;2023-02-10T17:55:56;6.72;;;3.30;;
72575;SDS011;60613;48.658;2.328;2023-02-10T17:58:22;7.13;;;3.27;;
72575;SDS011;60613;48.658;2.328;2023-02-10T18:00:48;7.50;;;3.13;;
72575;SDS011;60613;48.658;2.328;2023-02-10T18:03:14;6.45;;;3.22;;
72575;SDS011;60613;48.658;2.328;2023-02-10T18:05:40;6.77;;;3.20;;
72575;SDS011;60613;48.658;2.328;2023-02-10T18:08:09;6.70;;;3.13;;
72575;SDS011;60613;48.658;2.328;2023-02-10T18:10:35;8.35;;;3.50;;
72575;SDS011;60613;48.658;2.328;2023-02-10T18:13:02;7.22;;;3.30;;
72575;SDS011;60613;48.658;2.328;2023-02-10T18:15:28;7.00;;;3.30;;
72575;SDS011;60613;48.658;2.328;2023-02-10T18:17:53;7.50;;;3.45;;
72575;SDS011;60613;48.658;2.328;2023-02-10T18:20:19;7.10;;;3.43;;
72575;SDS011;60613;48.658;2.328;2023-02-10T18:22:46;8.88;;;3.33;;
72575;SDS011;60613;48.658;2.328;2023-02-10T18:25:13;8.68;;;3.67;;
72575;SDS011;60613;48.658;2.328;2023-02-10T18:27:39;7.95;;;3.83;;
72575;SDS011;60613;48.658;2.328;2023-02-10T18:30:05;9.20;;;4.13;;
72575;SDS011;60613;48.658;2.328;2023-02-10T18:32:32;7.40;;;3.70;;
72575;SDS011;60613;48.658;2.328;2023-02-10T18:34:59;8.73;;;4.18;;
72575;SDS011;60613;48.658;2.328;2023-02-10T18:37:25;8.17;;;4.20;;
72575;SDS011;60613;48.658;2.328;2023-02-10T18:39:51;8.55;;;4.68;;
72575;SDS011;60613;48.658;2.328;2023-02-10T18:42:23;8.00;;;4.13;;
72575;SDS011;60613;48.658;2.328;2023-02-10T18:44:49;9.38;;;4.43;;
72575;SDS011;60613;48.658;2.328;2023-02-10T18:47:15;8.47;;;4.20;;
72575;SDS011;60613;48.658;2.328;2023-02-10T18:49:41;8.73;;;4.47;;
72575;SDS011;60613;48.658;2.328;2023-02-10T18:52:06;8.35;;;4.50;;
72575;SDS011;60613;48.658;2.328;2023-02-10T18:54:32;9.37;;;4.67;;
72575;SDS011;60613;48.658;2.328;2023-02-10T18:56:58;8.10;;;4.30;;
72575;SDS011;60613;48.658;2.328;2023-02-10T18:59:24;7.73;;;4.30;;
72575;SDS011;60613;48.658;2.328;2023-02-10T19:01:50;8.57;;;4.55;;
72575;SDS011;60613;48.658;2.328;2023-02-10T19:04:17;9.27;;;4.80;;
72575;SDS011;60613;48.658;2.328;2023-02-10T19:06:43;8.55;;;4.60;;
72575;SDS011;60613;48.658;2.328;2023-02-10T19:09:10;8.37;;;4.47;;
72575;SDS011;60613;48.658;2.328;2023-02-10T19:11:37;8.57;;;4.50;;
72575;SDS011;60613;48.658;2.328;2023-02-10T19:14:02;9.00;;;4.85;;
72575;SDS011;60613;48.658;2.328;2023-02-10T19:16:28;8.37;;;4.80;;
72575;SDS011;60613;48.658;2.328;2023-02-10T19:18:54;8.85;;;4.82;;
72575;SDS011;60613;48.658;2.328;2023-02-10T19:21:22;9.32;;;5.25;;
72575;SDS011;60613;48.658;2.328;2023-02-10T19:23:48;10.20;;;5.20;;
72575;SDS011;60613;48.658;2.328;2023-02-10T19:26:14;9.52;;;5.10;;
72575;SDS011;60613;48.658;2.328;2023-02-10T19:28:39;8.73;;;5.00;;
72575;SDS011;60613;48.658;2.328;2023-02-10T19:31:07;9.32;;;5.00;;
72575;SDS011;60613;48.658;2.328;2023-02-10T19:33:34;10.10;;;5.60;;
72575;SDS011;60613;48.658;2.328;2023-02-10T19:36:01;9.80;;;5.30;;
72575;SDS011;60613;48.658;2.328;2023-02-10T19:38:27;8.50;;;5.17;;
72575;SDS011;60613;48.658;2.328;2023-02-10T19:41:06;9.93;;;5.30;;
72575;SDS011;60613;48.658;2.328;2023-02-10T19:43:33;8.82;;;5.38;;
72575;SDS011;60613;48.658;2.328;2023-02-10T19:45:59;9.50;;;5.18;;
72575;SDS011;60613;48.658;2.328;2023-02-10T19:48:25;10.37;;;5.20;;
72575;SDS011;60613;48.658;2.328;2023-02-10T19:50:54;10.38;;;5.65;;
72575;SDS011;60613;48.658;2.328;2023-02-10T19:53:20;11.00;;;6.07;;
72575;SDS011;60613;48.658;2.328;2023-02-10T19:55:46;11.80;;;6.13;;
72575;SDS011;60613;48.658;2.328;2023-02-10T19:58:12;10.07;;;5.67;;
72575;SDS011;60613;48.658;2.328;2023-02-10T20:00:38;10.63;;;6.27;;
72575;SDS011;60613;48.658;2.328;2023-02-10T20:03:03;12.02;;;6.47;;
72575;SDS011;60613;48.658;2.328;2023-02-10T20:05:29;11.87;;;6.63;;
72575;SDS011;60613;48.658;2.328;2023-02-10T20:07:56;10.77;;;6.38;;
72575;SDS011;60613;48.658;2.328;2023-02-10T20:10:21;11.93;;;6.68;;
72575;SDS011;60613;48.658;2.328;2023-02-10T20:12:47;11.53;;;6.63;;
72575;SDS011;60613;48.658;2.328;2023-02-10T20:15:13;11.85;;;6.80;;
72575;SDS011;60613;48.658;2.328;2023-02-10T20:17:38;11.57;;;6.50;;
72575;SDS011;60613;48.658;2.328;2023-02-10T20:20:04;11.20;;;6.30;;
72575;SDS011;60613;48.658;2.328;2023-02-10T20:22:30;11.52;;;6.45;;
72575;SDS011;60613;48.658;2.328;2023-02-10T20:24:55;11.35;;;6.68;;
72575;SDS011;60613;48.658;2.328;2023-02-10T20:27:21;11.90;;;6.40;;
72575;SDS011;60613;48.658;2.328;2023-02-10T20:29:47;11.37;;;6.40;;
72575;SDS011;60613;48.658;2.328;2023-02-10T20:32:12;10.80;;;6.53;;
72575;SDS011;60613;48.658;2.328;2023-02-10T20:34:38;12.03;;;6.73;;
72575;SDS011;60613;48.658;2.328;2023-02-10T20:37:03;11.10;;;6.25;;
72575;SDS011;60613;48.658;2.328;2023-02-10T20:39:29;11.20;;;6.67;;
72575;SDS011;60613;48.658;2.328;2023-02-10T20:41:54;11.50;;;6.53;;
72575;SDS011;60613;48.658;2.328;2023-02-10T20:44:20;12.23;;;6.80;;
72575;SDS011;60613;48.658;2.328;2023-02-10T20:46:45;11.47;;;6.80;;
72575;SDS011;60613;48.658;2.328;2023-02-10T20:49:11;12.27;;;6.55;;
72575;SDS011;60613;48.658;2.328;2023-02-10T20:51:37;11.35;;;6.35;;
72575;SDS011;60613;48.658;2.328;2023-02-10T20:54:03;12.23;;;6.53;;
72575;SDS011;60613;48.658;2.328;2023-02-10T20:56:29;11.88;;;7.10;;
72575;SDS011;60613;48.658;2.328;2023-02-10T20:58:59;12.88;;;6.60;;
72575;SDS011;60613;48.658;2.328;2023-02-10T21:01:25;13.03;;;6.67;;
72575;SDS011;60613;48.658;2.328;2023-02-10T21:03:51;10.95;;;6.55;;
72575;SDS011;60613;48.658;2.328;2023-02-10T21:06:18;11.77;;;6.60;;
72575;SDS011;60613;48.658;2.328;2023-02-10T21:08:47;12.05;;;6.70;;
72575;SDS011;60613;48.658;2.328;2023-02-10T21:11:14;11.90;;;7.40;;
72575;SDS011;60613;48.658;2.328;2023-02-10T21:13:41;12.10;;;6.65;;
72575;SDS011;60613;48.658;2.328;2023-02-10T21:16:08;10.87;;;6.50;;
72575;SDS011;60613;48.658;2.328;2023-02-10T21:18:35;12.27;;;6.80;;
72575;SDS011;60613;48.658;2.328;2023-02-10T21:21:01;11.75;;;6.65;;
72575;SDS011;60613;48.658;2.328;2023-02-10T21:23:28;11.40;;;6.72;;
72575;SDS011;60613;48.658;2.328;2023-02-10T21:25:54;12.73;;;6.77;;
72575;SDS011;60613;48.658;2.328;2023-02-10T21:28:21;11.23;;;6.57;;
72575;SDS011;60613;48.658;2.328;2023-02-10T21:30:47;11.73;;;6.88;;
72575;SDS011;60613;48.658;2.328;2023-02-10T21:33:14;12.73;;;7.63;;
72575;SDS011;60613;48.658;2.328;2023-02-10T21:35:44;11.68;;;7.03;;
72575;SDS011;60613;48.658;2.328;2023-02-10T21:38:14;13.20;;;7.03;;
72575;SDS011;60613;48.658;2.328;2023-02-10T21:40:40;10.97;;;6.77;;
72575;SDS011;60613;48.658;2.328;2023-02-10T21:43:06;13.10;;;7.10;;
72575;SDS011;60613;48.658;2.328;2023-02-10T21:45:32;13.05;;;7.18;;
72575;SDS011;60613;48.658;2.328;2023-02-10T21:47:58;12.32;;;7.22;;
72575;SDS011;60613;48.658;2.328;2023-02-10T21:50:24;12.47;;;7.40;;
72575;SDS011;60613;48.658;2.328;2023-02-10T21:52:50;12.85;;;7.18;;
72575;SDS011;60613;48.658;2.328;2023-02-10T21:55:15;13.70;;;7.40;;
72575;SDS011;60613;48.658;2.328;2023-02-10T21:57:41;11.98;;;7.38;;
72575;SDS011;60613;48.658;2.328;2023-02-10T22:00:07;13.10;;;7.40;;
72575;SDS011;60613;48.658;2.328;2023-02-10T22:02:33;12.73;;;7.60;;
72575;SDS011;60613;48.658;2.328;2023-02-10T22:04:59;12.17;;;7.50;;
72575;SDS011;60613;48.658;2.328;2023-02-10T22:07:24;13.20;;;7.60;;
72575;SDS011;60613;48.658;2.328;2023-02-10T22:09:50;12.73;;;7.97;;
72575;SDS011;60613;48.658;2.328;2023-02-10T22:12:16;12.05;;;7.20;;
72575;SDS011;60613;48.658;2.328;2023-02-10T22:14:41;12.38;;;7.82;;
72575;SDS011;60613;48.658;2.328;2023-02-10T22:17:07;13.27;;;7.60;;
72575;SDS011;60613;48.658;2.328;2023-02-10T22:19:33;12.40;;;7.70;;
72575;SDS011;60613;48.658;2.328;2023-02-10T22:21:59;12.40;;;7.10;;
72575;SDS011;60613;48.658;2.328;2023-02-10T22:24:25;13.95;;;7.55;;
72575;SDS011;60613;48.658;2.328;2023-02-10T22:26:51;12.60;;;7.73;;
72575;SDS011;60613;48.658;2.328;2023-02-10T22:29:17;11.80;;;7.43;;
72575;SDS011;60613;48.658;2.328;2023-02-10T22:31:42;13.10;;;7.50;;
72575;SDS011;60613;48.658;2.328;2023-02-10T22:34:13;12.27;;;7.70;;
72575;SDS011;60613;48.658;2.328;2023-02-10T22:36:39;12.48;;;7.85;;
72575;SDS011;60613;48.658;2.328;2023-02-10T22:39:04;13.07;;;7.70;;
72575;SDS011;60613;48.658;2.328;2023-02-10T22:41:30;12.88;;;7.65;;
72575;SDS011;60613;48.658;2.328;2023-02-10T22:43:57;11.75;;;7.28;;
72575;SDS011;60613;48.658;2.328;2023-02-10T22:46:25;12.87;;;7.87;;
72575;SDS011;60613;48.658;2.328;2023-02-10T22:48:51;12.93;;;7.30;;
72575;SDS011;60613;48.658;2.328;2023-02-10T22:51:19;11.60;;;7.20;;
72575;SDS011;60613;48.658;2.328;2023-02-10T22:53:53;12.13;;;7.65;;
72575;SDS011;60613;48.658;2.328;2023-02-10T22:56:21;11.82;;;7.00;;
72575;SDS011;60613;48.658;2.328;2023-02-10T22:58:48;12.60;;;7.60;;
72575;SDS011;60613;48.658;2.328;2023-02-10T23:01:23;13.45;;;7.65;;
72575;SDS011;60613;48.658;2.328;2023-02-10T23:03:53;12.35;;;7.78;;
72575;SDS011;60613;48.658;2.328;2023-02-10T23:06:19;11.20;;;7.30;;
72575;SDS011;60613;48.658;2.328;2023-02-10T23:08:45;12.30;;;7.10;;
72575;SDS011;60613;48.658;2.328;2023-02-10T23:11:11;11.67;;;7.27;;
72575;SDS011;60613;48.658;2.328;2023-02-10T23:13:37;12.85;;;7.53;;
72575;SDS011;60613;48.658;2.328;2023-02-10T23:16:03;12.15;;;7.20;;
72575;SDS011;60613;48.658;2.328;2023-02-10T23:18:29;12.07;;;7.23;;
72575;SDS011;60613;48.658;2.328;2023-02-10T23:20:56;11.95;;;7.47;;
72575;SDS011;60613;48.658;2.328;2023-02-10T23:23:22;11.88;;;7.28;;